sensor_id;sensor_type;location;lat;lon;timestamp;P1;durP1;ratioP1;P2;durP2;ratioP2
38972;SDS011;25333;50.762;4.470;2022-10-28T00:01:13;8.50;;;3.53;;
38972;SDS011;25333;50.762;4.470;2022-10-28T00:03:42;8.50;;;2.97;;
38972;SDS011;25333;50.762;4.470;2022-10-28T00:06:10;9.80;;;2.85;;
38972;SDS011;25333;50.762;4.470;2022-10-28T00:08:37;6.15;;;3.03;;
38972;SDS011;25333;50.762;4.470;2022-10-28T00:11:04;4.95;;;2.60;;
38972;SDS011;25333;50.762;4.470;2022-10-28T00:13:33;9.38;;;3.20;;
38972;SDS011;25333;50.762;4.470;2022-10-28T00:16:07;4.00;;;2.38;;
38972;SDS011;25333;50.762;4.470;2022-10-28T00:18:34;4.53;;;2.28;;
38972;SDS011;25333;50.762;4.470;2022-10-28T00:21:01;5.18;;;2.50;;
38972;SDS011;25333;50.762;4.470;2022-10-28T00:23:32;5.55;;;1.90;;
38972;SDS011;25333;50.762;4.470;2022-10-28T00:26:07;6.10;;;2.30;;
38972;SDS011;25333;50.762;4.470;2022-10-28T00:28:33;4.32;;;1.85;;
38972;SDS011;25333;50.762;4.470;2022-10-28T00:31:03;4.73;;;1.97;;
38972;SDS011;25333;50.762;4.470;2022-10-28T00:33:33;5.75;;;2.60;;
38972;SDS011;25333;50.762;4.470;2022-10-28T00:38:38;7.07;;;2.83;;
38972;SDS011;25333;50.762;4.470;2022-10-28T00:41:04;6.70;;;2.60;;
38972;SDS011;25333;50.762;4.470;2022-10-28T00:43:34;4.05;;;2.03;;
38972;SDS011;25333;50.762;4.470;2022-10-28T00:49:01;6.30;;;2.55;;
38972;SDS011;25333;50.762;4.470;2022-10-28T00:51:36;4.63;;;2.07;;
38972;SDS011;25333;50.762;4.470;2022-10-28T00:54:03;5.70;;;2.13;;
38972;SDS011;25333;50.762;4.470;2022-10-28T00:56:30;5.22;;;2.70;;
38972;SDS011;25333;50.762;4.470;2022-10-28T00:59:01;5.55;;;2.40;;
38972;SDS011;25333;50.762;4.470;2022-10-28T01:01:30;5.10;;;2.35;;
38972;SDS011;25333;50.762;4.470;2022-10-28T01:03:56;7.03;;;2.35;;
38972;SDS011;25333;50.762;4.470;2022-10-28T01:06:22;4.40;;;2.33;;
38972;SDS011;25333;50.762;4.470;2022-10-28T01:08:50;5.28;;;2.22;;
38972;SDS011;25333;50.762;4.470;2022-10-28T01:13:50;6.47;;;1.92;;
38972;SDS011;25333;50.762;4.470;2022-10-28T01:16:39;4.65;;;2.40;;
38972;SDS011;25333;50.762;4.470;2022-10-28T01:22:28;4.85;;;2.17;;
38972;SDS011;25333;50.762;4.470;2022-10-28T01:30:28;3.25;;;2.03;;
38972;SDS011;25333;50.762;4.470;2022-10-28T01:33:19;4.07;;;2.40;;
38972;SDS011;25333;50.762;4.470;2022-10-28T01:35:53;5.40;;;2.35;;
38972;SDS011;25333;50.762;4.470;2022-10-28T01:38:27;5.97;;;2.38;;
38972;SDS011;25333;50.762;4.470;2022-10-28T01:41:08;8.20;;;2.42;;
38972;SDS011;25333;50.762;4.470;2022-10-28T01:50:06;9.05;;;1.92;;
38972;SDS011;25333;50.762;4.470;2022-10-28T01:52:37;6.78;;;2.30;;
38972;SDS011;25333;50.762;4.470;2022-10-28T01:55:07;4.10;;;1.88;;
38972;SDS011;25333;50.762;4.470;2022-10-28T01:57:38;6.25;;;2.65;;
38972;SDS011;25333;50.762;4.470;2022-10-28T02:00:05;4.35;;;2.63;;
38972;SDS011;25333;50.762;4.470;2022-10-28T02:02:32;4.80;;;2.60;;
38972;SDS011;25333;50.762;4.470;2022-10-28T02:05:05;7.70;;;2.55;;
38972;SDS011;25333;50.762;4.470;2022-10-28T02:07:54;5.38;;;2.08;;
38972;SDS011;25333;50.762;4.470;2022-10-28T02:10:23;4.93;;;2.42;;
38972;SDS011;25333;50.762;4.470;2022-10-28T02:12:58;5.80;;;1.77;;
38972;SDS011;25333;50.762;4.470;2022-10-28T02:15:32;6.93;;;2.40;;
38972;SDS011;25333;50.762;4.470;2022-10-28T02:20:51;3.67;;;1.85;;
38972;SDS011;25333;50.762;4.470;2022-10-28T02:23:26;7.05;;;2.10;;
38972;SDS011;25333;50.762;4.470;2022-10-28T02:29:15;3.83;;;2.08;;
38972;SDS011;25333;50.762;4.470;2022-10-28T02:31:54;5.50;;;2.88;;
38972;SDS011;25333;50.762;4.470;2022-10-28T02:34:24;6.70;;;2.60;;
38972;SDS011;25333;50.762;4.470;2022-10-28T02:36:54;3.63;;;1.92;;
38972;SDS011;25333;50.762;4.470;2022-10-28T02:39:28;5.85;;;2.00;;
38972;SDS011;25333;50.762;4.470;2022-10-28T02:42:02;5.40;;;2.88;;
38972;SDS011;25333;50.762;4.470;2022-10-28T02:44:37;9.60;;;4.18;;
38972;SDS011;25333;50.762;4.470;2022-10-28T02:47:09;7.90;;;3.03;;
38972;SDS011;25333;50.762;4.470;2022-10-28T02:49:38;9.77;;;3.70;;
38972;SDS011;25333;50.762;4.470;2022-10-28T02:52:09;6.03;;;3.97;;
38972;SDS011;25333;50.762;4.470;2022-10-28T02:54:40;7.88;;;3.58;;
38972;SDS011;25333;50.762;4.470;2022-10-28T02:57:12;10.10;;;2.97;;
38972;SDS011;25333;50.762;4.470;2022-10-28T02:59:52;6.30;;;3.45;;
38972;SDS011;25333;50.762;4.470;2022-10-28T03:02:19;9.47;;;4.23;;
38972;SDS011;25333;50.762;4.470;2022-10-28T03:04:45;5.53;;;3.15;;
38972;SDS011;25333;50.762;4.470;2022-10-28T03:07:11;8.57;;;3.93;;
38972;SDS011;25333;50.762;4.470;2022-10-28T03:09:36;7.83;;;3.43;;
38972;SDS011;25333;50.762;4.470;2022-10-28T03:12:02;9.40;;;3.85;;
38972;SDS011;25333;50.762;4.470;2022-10-28T03:14:28;8.57;;;4.53;;
38972;SDS011;25333;50.762;4.470;2022-10-28T03:16:54;10.53;;;5.03;;
38972;SDS011;25333;50.762;4.470;2022-10-28T03:19:19;13.18;;;6.35;;
38972;SDS011;25333;50.762;4.470;2022-10-28T03:21:45;10.82;;;5.45;;
38972;SDS011;25333;50.762;4.470;2022-10-28T03:24:10;9.80;;;4.90;;
38972;SDS011;25333;50.762;4.470;2022-10-28T03:26:36;6.97;;;4.50;;
38972;SDS011;25333;50.762;4.470;2022-10-28T03:29:02;11.93;;;5.00;;
38972;SDS011;25333;50.762;4.470;2022-10-28T03:31:27;10.48;;;4.85;;
38972;SDS011;25333;50.762;4.470;2022-10-28T03:33:53;9.88;;;4.82;;
38972;SDS011;25333;50.762;4.470;2022-10-28T03:36:19;10.87;;;5.27;;
38972;SDS011;25333;50.762;4.470;2022-10-28T03:38:44;9.57;;;4.53;;
38972;SDS011;25333;50.762;4.470;2022-10-28T03:41:10;8.15;;;4.63;;
38972;SDS011;25333;50.762;4.470;2022-10-28T03:43:35;11.50;;;5.00;;
38972;SDS011;25333;50.762;4.470;2022-10-28T03:46:01;8.55;;;4.10;;
38972;SDS011;25333;50.762;4.470;2022-10-28T03:48:27;9.37;;;5.10;;
38972;SDS011;25333;50.762;4.470;2022-10-28T03:50:52;11.00;;;4.67;;
38972;SDS011;25333;50.762;4.470;2022-10-28T03:53:19;10.18;;;4.55;;
38972;SDS011;25333;50.762;4.470;2022-10-28T03:55:52;6.47;;;4.03;;
38972;SDS011;25333;50.762;4.470;2022-10-28T03:58:19;7.18;;;3.95;;
38972;SDS011;25333;50.762;4.470;2022-10-28T04:00:49;10.65;;;4.38;;
38972;SDS011;25333;50.762;4.470;2022-10-28T04:03:16;7.60;;;3.67;;
38972;SDS011;25333;50.762;4.470;2022-10-28T04:05:43;5.93;;;3.80;;
38972;SDS011;25333;50.762;4.470;2022-10-28T04:08:09;7.72;;;3.80;;
38972;SDS011;25333;50.762;4.470;2022-10-28T04:10:34;7.90;;;4.17;;
38972;SDS011;25333;50.762;4.470;2022-10-28T04:13:01;10.05;;;3.78;;
38972;SDS011;25333;50.762;4.470;2022-10-28T04:15:28;7.03;;;3.40;;
38972;SDS011;25333;50.762;4.470;2022-10-28T04:17:54;7.47;;;3.80;;
38972;SDS011;25333;50.762;4.470;2022-10-28T04:20:19;8.40;;;3.43;;
38972;SDS011;25333;50.762;4.470;2022-10-28T04:22:45;7.67;;;4.63;;
38972;SDS011;25333;50.762;4.470;2022-10-28T04:25:11;6.85;;;3.35;;
38972;SDS011;25333;50.762;4.470;2022-10-28T04:27:37;5.93;;;3.40;;
38972;SDS011;25333;50.762;4.470;2022-10-28T04:30:03;6.47;;;3.47;;
38972;SDS011;25333;50.762;4.470;2022-10-28T04:32:29;5.28;;;2.97;;
38972;SDS011;25333;50.762;4.470;2022-10-28T04:34:55;7.63;;;3.05;;
38972;SDS011;25333;50.762;4.470;2022-10-28T04:37:20;5.57;;;3.27;;
38972;SDS011;25333;50.762;4.470;2022-10-28T04:39:46;6.70;;;2.50;;
38972;SDS011;25333;50.762;4.470;2022-10-28T04:42:12;8.98;;;3.47;;
38972;SDS011;25333;50.762;4.470;2022-10-28T04:44:37;5.60;;;2.83;;
38972;SDS011;25333;50.762;4.470;2022-10-28T04:47:03;6.47;;;2.60;;
38972;SDS011;25333;50.762;4.470;2022-10-28T04:49:29;6.00;;;3.25;;
38972;SDS011;25333;50.762;4.470;2022-10-28T04:51:54;6.07;;;3.03;;
38972;SDS011;25333;50.762;4.470;2022-10-28T04:54:20;8.93;;;3.45;;
38972;SDS011;25333;50.762;4.470;2022-10-28T04:56:46;6.57;;;2.93;;
38972;SDS011;25333;50.762;4.470;2022-10-28T04:59:11;8.57;;;3.77;;
38972;SDS011;25333;50.762;4.470;2022-10-28T05:01:37;7.60;;;3.70;;
38972;SDS011;25333;50.762;4.470;2022-10-28T05:04:03;6.53;;;3.58;;
38972;SDS011;25333;50.762;4.470;2022-10-28T05:06:28;10.18;;;4.72;;
38972;SDS011;25333;50.762;4.470;2022-10-28T05:08:54;7.20;;;4.07;;
38972;SDS011;25333;50.762;4.470;2022-10-28T05:11:20;9.63;;;4.15;;
38972;SDS011;25333;50.762;4.470;2022-10-28T05:13:45;6.55;;;3.63;;
38972;SDS011;25333;50.762;4.470;2022-10-28T05:16:11;11.98;;;5.07;;
38972;SDS011;25333;50.762;4.470;2022-10-28T05:18:36;8.97;;;4.90;;
38972;SDS011;25333;50.762;4.470;2022-10-28T05:21:02;11.83;;;5.40;;
38972;SDS011;25333;50.762;4.470;2022-10-28T05:23:28;7.90;;;3.87;;
38972;SDS011;25333;50.762;4.470;2022-10-28T05:25:53;8.18;;;3.83;;
38972;SDS011;25333;50.762;4.470;2022-10-28T05:28:19;8.57;;;4.38;;
38972;SDS011;25333;50.762;4.470;2022-10-28T05:30:46;6.60;;;3.90;;
38972;SDS011;25333;50.762;4.470;2022-10-28T05:33:11;8.73;;;4.37;;
38972;SDS011;25333;50.762;4.470;2022-10-28T05:35:38;9.68;;;4.60;;
38972;SDS011;25333;50.762;4.470;2022-10-28T05:38:04;9.77;;;4.55;;
38972;SDS011;25333;50.762;4.470;2022-10-28T05:40:30;8.95;;;4.18;;
38972;SDS011;25333;50.762;4.470;2022-10-28T05:42:59;8.73;;;4.40;;
38972;SDS011;25333;50.762;4.470;2022-10-28T05:45:25;8.70;;;4.93;;
38972;SDS011;25333;50.762;4.470;2022-10-28T05:47:51;9.23;;;4.15;;
38972;SDS011;25333;50.762;4.470;2022-10-28T05:50:17;8.85;;;4.20;;
38972;SDS011;25333;50.762;4.470;2022-10-28T05:52:45;7.97;;;4.40;;
38972;SDS011;25333;50.762;4.470;2022-10-28T05:55:16;12.47;;;5.50;;
38972;SDS011;25333;50.762;4.470;2022-10-28T05:57:43;13.00;;;5.25;;
38972;SDS011;25333;50.762;4.470;2022-10-28T06:00:10;11.02;;;4.32;;
38972;SDS011;25333;50.762;4.470;2022-10-28T06:02:36;8.77;;;4.55;;
38972;SDS011;25333;50.762;4.470;2022-10-28T06:05:02;7.73;;;5.07;;
38972;SDS011;25333;50.762;4.470;2022-10-28T06:07:28;10.85;;;4.82;;
38972;SDS011;25333;50.762;4.470;2022-10-28T06:09:54;9.15;;;4.55;;
38972;SDS011;25333;50.762;4.470;2022-10-28T06:12:19;7.83;;;4.00;;
38972;SDS011;25333;50.762;4.470;2022-10-28T06:14:45;6.15;;;4.15;;
38972;SDS011;25333;50.762;4.470;2022-10-28T06:17:10;11.65;;;5.18;;
38972;SDS011;25333;50.762;4.470;2022-10-28T06:19:36;9.57;;;4.50;;
38972;SDS011;25333;50.762;4.470;2022-10-28T06:22:02;7.10;;;4.60;;
38972;SDS011;25333;50.762;4.470;2022-10-28T06:24:27;9.70;;;4.13;;
38972;SDS011;25333;50.762;4.470;2022-10-28T06:26:53;9.43;;;4.65;;
38972;SDS011;25333;50.762;4.470;2022-10-28T06:29:19;10.73;;;5.22;;
38972;SDS011;25333;50.762;4.470;2022-10-28T06:31:44;6.27;;;3.77;;
38972;SDS011;25333;50.762;4.470;2022-10-28T06:34:10;7.70;;;4.20;;
38972;SDS011;25333;50.762;4.470;2022-10-28T06:36:36;6.05;;;3.60;;
38972;SDS011;25333;50.762;4.470;2022-10-28T06:39:02;9.40;;;3.42;;
38972;SDS011;25333;50.762;4.470;2022-10-28T06:41:28;7.70;;;3.87;;
38972;SDS011;25333;50.762;4.470;2022-10-28T06:43:54;8.88;;;4.43;;
38972;SDS011;25333;50.762;4.470;2022-10-28T06:46:19;10.13;;;3.85;;
38972;SDS011;25333;50.762;4.470;2022-10-28T06:48:45;11.87;;;4.67;;
38972;SDS011;25333;50.762;4.470;2022-10-28T06:51:11;9.77;;;4.63;;
38972;SDS011;25333;50.762;4.470;2022-10-28T06:53:36;9.00;;;4.60;;
38972;SDS011;25333;50.762;4.470;2022-10-28T06:56:02;8.25;;;4.13;;
38972;SDS011;25333;50.762;4.470;2022-10-28T06:58:28;12.63;;;4.78;;
38972;SDS011;25333;50.762;4.470;2022-10-28T07:00:53;12.20;;;4.70;;
38972;SDS011;25333;50.762;4.470;2022-10-28T07:03:19;9.23;;;4.57;;
38972;SDS011;25333;50.762;4.470;2022-10-28T07:05:45;10.52;;;4.88;;
38972;SDS011;25333;50.762;4.470;2022-10-28T07:08:13;13.80;;;5.05;;
38972;SDS011;25333;50.762;4.470;2022-10-28T07:10:39;8.82;;;4.60;;
38972;SDS011;25333;50.762;4.470;2022-10-28T07:13:05;10.80;;;3.90;;
38972;SDS011;25333;50.762;4.470;2022-10-28T07:15:30;9.70;;;3.92;;
38972;SDS011;25333;50.762;4.470;2022-10-28T07:17:57;8.07;;;4.70;;
38972;SDS011;25333;50.762;4.470;2022-10-28T07:20:24;11.38;;;4.50;;
38972;SDS011;25333;50.762;4.470;2022-10-28T07:22:54;10.23;;;4.25;;
38972;SDS011;25333;50.762;4.470;2022-10-28T07:25:24;8.63;;;4.60;;
38972;SDS011;25333;50.762;4.470;2022-10-28T07:27:51;10.38;;;4.55;;
38972;SDS011;25333;50.762;4.470;2022-10-28T07:30:16;12.47;;;4.30;;
38972;SDS011;25333;50.762;4.470;2022-10-28T07:32:42;11.50;;;4.25;;
38972;SDS011;25333;50.762;4.470;2022-10-28T07:35:08;8.38;;;3.67;;
38972;SDS011;25333;50.762;4.470;2022-10-28T07:37:33;8.13;;;4.03;;
38972;SDS011;25333;50.762;4.470;2022-10-28T07:39:59;8.33;;;4.10;;
38972;SDS011;25333;50.762;4.470;2022-10-28T07:42:25;12.03;;;4.83;;
38972;SDS011;25333;50.762;4.470;2022-10-28T07:44:50;11.20;;;4.53;;
38972;SDS011;25333;50.762;4.470;2022-10-28T07:47:16;8.05;;;4.30;;
38972;SDS011;25333;50.762;4.470;2022-10-28T07:49:43;9.40;;;3.78;;
38972;SDS011;25333;50.762;4.470;2022-10-28T07:52:09;8.73;;;3.90;;
38972;SDS011;25333;50.762;4.470;2022-10-28T07:54:34;9.95;;;4.40;;
38972;SDS011;25333;50.762;4.470;2022-10-28T07:57:00;10.75;;;3.45;;
38972;SDS011;25333;50.762;4.470;2022-10-28T07:59:25;9.18;;;4.30;;
38972;SDS011;25333;50.762;4.470;2022-10-28T08:01:51;7.97;;;3.73;;
38972;SDS011;25333;50.762;4.470;2022-10-28T08:04:17;9.23;;;4.13;;
38972;SDS011;25333;50.762;4.470;2022-10-28T08:06:42;11.00;;;4.60;;
38972;SDS011;25333;50.762;4.470;2022-10-28T08:09:08;7.88;;;4.10;;
38972;SDS011;25333;50.762;4.470;2022-10-28T08:11:33;9.25;;;3.67;;
38972;SDS011;25333;50.762;4.470;2022-10-28T08:14:00;11.90;;;3.92;;
38972;SDS011;25333;50.762;4.470;2022-10-28T08:16:26;7.90;;;4.07;;
38972;SDS011;25333;50.762;4.470;2022-10-28T08:18:53;9.90;;;4.30;;
38972;SDS011;25333;50.762;4.470;2022-10-28T08:21:20;8.87;;;3.77;;
38972;SDS011;25333;50.762;4.470;2022-10-28T08:23:46;12.15;;;4.65;;
38972;SDS011;25333;50.762;4.470;2022-10-28T08:26:13;7.95;;;4.30;;
38972;SDS011;25333;50.762;4.470;2022-10-28T08:28:39;8.10;;;4.47;;
38972;SDS011;25333;50.762;4.470;2022-10-28T08:31:06;11.50;;;4.63;;
38972;SDS011;25333;50.762;4.470;2022-10-28T08:33:36;7.53;;;3.95;;
38972;SDS011;25333;50.762;4.470;2022-10-28T08:36:04;13.05;;;4.38;;
38972;SDS011;25333;50.762;4.470;2022-10-28T08:38:30;11.23;;;4.32;;
38972;SDS011;25333;50.762;4.470;2022-10-28T08:41:14;10.67;;;4.20;;
38972;SDS011;25333;50.762;4.470;2022-10-28T08:49:29;11.60;;;5.32;;
38972;SDS011;25333;50.762;4.470;2022-10-28T08:55:34;10.35;;;4.90;;
38972;SDS011;25333;50.762;4.470;2022-10-28T08:57:43;13.20;;;5.18;;
38972;SDS011;25333;50.762;4.470;2022-10-28T09:00:26;9.63;;;4.90;;
38972;SDS011;25333;50.762;4.470;2022-10-28T09:03:17;9.13;;;4.30;;
38972;SDS011;25333;50.762;4.470;2022-10-28T09:05:46;12.97;;;4.63;;
38972;SDS011;25333;50.762;4.470;2022-10-28T09:10:49;9.88;;;4.85;;
38972;SDS011;25333;50.762;4.470;2022-10-28T09:13:37;8.57;;;4.32;;
38972;SDS011;25333;50.762;4.470;2022-10-28T09:18:51;10.80;;;4.40;;
38972;SDS011;25333;50.762;4.470;2022-10-28T09:21:24;10.20;;;4.65;;
38972;SDS011;25333;50.762;4.470;2022-10-28T09:23:57;13.98;;;4.60;;
38972;SDS011;25333;50.762;4.470;2022-10-28T09:29:25;11.82;;;4.22;;
38972;SDS011;25333;50.762;4.470;2022-10-28T09:31:57;8.63;;;3.30;;
38972;SDS011;25333;50.762;4.470;2022-10-28T09:39:42;11.47;;;3.63;;
38972;SDS011;25333;50.762;4.470;2022-10-28T09:42:19;9.77;;;3.03;;
38972;SDS011;25333;50.762;4.470;2022-10-28T09:44:55;11.82;;;3.72;;
38972;SDS011;25333;50.762;4.470;2022-10-28T09:47:36;11.07;;;3.63;;
38972;SDS011;25333;50.762;4.470;2022-10-28T09:50:11;8.10;;;3.38;;
38972;SDS011;25333;50.762;4.470;2022-10-28T09:52:56;10.27;;;3.63;;
38972;SDS011;25333;50.762;4.470;2022-10-28T09:55:28;8.20;;;3.85;;
38972;SDS011;25333;50.762;4.470;2022-10-28T09:57:56;9.80;;;3.67;;
38972;SDS011;25333;50.762;4.470;2022-10-28T10:00:22;8.82;;;3.30;;
38972;SDS011;25333;50.762;4.470;2022-10-28T10:02:48;11.55;;;3.15;;
38972;SDS011;25333;50.762;4.470;2022-10-28T10:05:19;8.57;;;3.60;;
38972;SDS011;25333;50.762;4.470;2022-10-28T10:07:46;6.40;;;2.87;;
38972;SDS011;25333;50.762;4.470;2022-10-28T10:10:25;9.77;;;3.58;;
38972;SDS011;25333;50.762;4.470;2022-10-28T10:13:09;10.38;;;3.20;;
38972;SDS011;25333;50.762;4.470;2022-10-28T10:15:44;6.18;;;3.17;;
38972;SDS011;25333;50.762;4.470;2022-10-28T10:18:15;10.73;;;2.50;;
38972;SDS011;25333;50.762;4.470;2022-10-28T10:20:48;13.00;;;2.88;;
38972;SDS011;25333;50.762;4.470;2022-10-28T10:23:37;8.25;;;2.70;;
38972;SDS011;25333;50.762;4.470;2022-10-28T10:26:11;9.57;;;2.90;;
38972;SDS011;25333;50.762;4.470;2022-10-28T10:28:42;7.50;;;2.72;;
38972;SDS011;25333;50.762;4.470;2022-10-28T10:31:19;10.27;;;3.15;;
38972;SDS011;25333;50.762;4.470;2022-10-28T10:33:51;8.87;;;3.17;;
38972;SDS011;25333;50.762;4.470;2022-10-28T10:36:19;9.07;;;2.60;;
38972;SDS011;25333;50.762;4.470;2022-10-28T10:38:51;8.45;;;2.72;;
38972;SDS011;25333;50.762;4.470;2022-10-28T10:41:44;7.63;;;2.72;;
38972;SDS011;25333;50.762;4.470;2022-10-28T10:46:44;8.05;;;2.83;;
38972;SDS011;25333;50.762;4.470;2022-10-28T10:49:19;8.10;;;2.95;;
38972;SDS011;25333;50.762;4.470;2022-10-28T10:51:51;9.57;;;2.90;;
38972;SDS011;25333;50.762;4.470;2022-10-28T10:54:21;8.88;;;2.88;;
38972;SDS011;25333;50.762;4.470;2022-10-28T10:56:53;8.07;;;3.13;;
38972;SDS011;25333;50.762;4.470;2022-10-28T10:59:21;10.10;;;2.97;;
38972;SDS011;25333;50.762;4.470;2022-10-28T11:01:51;9.30;;;2.90;;
38972;SDS011;25333;50.762;4.470;2022-10-28T11:04:20;9.25;;;3.22;;
38972;SDS011;25333;50.762;4.470;2022-10-28T11:06:48;7.88;;;2.55;;
38972;SDS011;25333;50.762;4.470;2022-10-28T11:09:18;8.73;;;2.78;;
38972;SDS011;25333;50.762;4.470;2022-10-28T11:12:01;7.43;;;3.20;;
38972;SDS011;25333;50.762;4.470;2022-10-28T11:14:59;7.17;;;2.17;;
38972;SDS011;25333;50.762;4.470;2022-10-28T11:17:27;10.50;;;2.92;;
38972;SDS011;25333;50.762;4.470;2022-10-28T11:19:56;6.90;;;2.65;;
38972;SDS011;25333;50.762;4.470;2022-10-28T11:22:42;8.18;;;3.25;;
38972;SDS011;25333;50.762;4.470;2022-10-28T11:25:36;8.23;;;3.15;;
38972;SDS011;25333;50.762;4.470;2022-10-28T11:28:12;7.55;;;3.35;;
38972;SDS011;25333;50.762;4.470;2022-10-28T11:31:33;7.07;;;3.10;;
38972;SDS011;25333;50.762;4.470;2022-10-28T11:50:39;9.65;;;3.08;;
38972;SDS011;25333;50.762;4.470;2022-10-28T12:04:18;9.63;;;2.80;;
38972;SDS011;25333;50.762;4.470;2022-10-28T12:12:13;10.38;;;3.80;;
38972;SDS011;25333;50.762;4.470;2022-10-28T12:15:08;12.15;;;3.05;;
38972;SDS011;25333;50.762;4.470;2022-10-28T12:17:57;6.97;;;3.83;;
38972;SDS011;25333;50.762;4.470;2022-10-28T12:20:46;8.27;;;3.42;;
38972;SDS011;25333;50.762;4.470;2022-10-28T12:23:23;8.55;;;1.90;;
38972;SDS011;25333;50.762;4.470;2022-10-28T12:25:50;6.85;;;2.35;;
38972;SDS011;25333;50.762;4.470;2022-10-28T12:28:32;5.38;;;2.35;;
38972;SDS011;25333;50.762;4.470;2022-10-28T12:31:16;11.65;;;2.97;;
38972;SDS011;25333;50.762;4.470;2022-10-28T12:33:44;7.22;;;2.88;;
38972;SDS011;25333;50.762;4.470;2022-10-28T12:36:15;9.52;;;2.65;;
38972;SDS011;25333;50.762;4.470;2022-10-28T12:38:50;7.68;;;2.15;;
38972;SDS011;25333;50.762;4.470;2022-10-28T12:41:25;8.95;;;2.42;;
38972;SDS011;25333;50.762;4.470;2022-10-28T12:44:10;6.78;;;2.70;;
38972;SDS011;25333;50.762;4.470;2022-10-28T12:46:48;9.25;;;3.33;;
38972;SDS011;25333;50.762;4.470;2022-10-28T12:49:20;5.77;;;2.40;;
38972;SDS011;25333;50.762;4.470;2022-10-28T12:55:13;6.13;;;2.00;;
38972;SDS011;25333;50.762;4.470;2022-10-28T12:57:43;8.25;;;2.42;;
38972;SDS011;25333;50.762;4.470;2022-10-28T13:00:19;5.65;;;2.35;;
38972;SDS011;25333;50.762;4.470;2022-10-28T13:02:50;5.75;;;2.22;;
38972;SDS011;25333;50.762;4.470;2022-10-28T13:05:25;8.35;;;2.65;;
38972;SDS011;25333;50.762;4.470;2022-10-28T13:10:45;10.13;;;2.40;;
38972;SDS011;25333;50.762;4.470;2022-10-28T13:13:29;6.38;;;2.70;;
38972;SDS011;25333;50.762;4.470;2022-10-28T13:19:13;5.47;;;2.33;;
38972;SDS011;25333;50.762;4.470;2022-10-28T13:24:34;8.75;;;2.38;;
38972;SDS011;25333;50.762;4.470;2022-10-28T13:27:05;7.63;;;2.40;;
38972;SDS011;25333;50.762;4.470;2022-10-28T13:29:36;6.93;;;2.60;;
38972;SDS011;25333;50.762;4.470;2022-10-28T13:32:04;5.55;;;2.42;;
38972;SDS011;25333;50.762;4.470;2022-10-28T13:34:31;7.28;;;2.92;;
38972;SDS011;25333;50.762;4.470;2022-10-28T13:37:00;6.10;;;2.20;;
38972;SDS011;25333;50.762;4.470;2022-10-28T13:44:47;6.15;;;2.70;;
38972;SDS011;25333;50.762;4.470;2022-10-28T13:52:30;7.60;;;3.08;;
38972;SDS011;25333;50.762;4.470;2022-10-28T13:58:03;5.93;;;2.42;;
38972;SDS011;25333;50.762;4.470;2022-10-28T14:05:48;9.20;;;3.08;;
38972;SDS011;25333;50.762;4.470;2022-10-28T14:08:20;7.32;;;2.67;;
38972;SDS011;25333;50.762;4.470;2022-10-28T14:13:48;12.25;;;3.67;;
38972;SDS011;25333;50.762;4.470;2022-10-28T14:19:05;7.78;;;2.50;;
38972;SDS011;25333;50.762;4.470;2022-10-28T14:21:45;10.50;;;2.42;;
38972;SDS011;25333;50.762;4.470;2022-10-28T14:24:39;4.82;;;2.25;;
38972;SDS011;25333;50.762;4.470;2022-10-28T14:33:08;5.60;;;2.35;;
38972;SDS011;25333;50.762;4.470;2022-10-28T14:40:36;10.90;;;3.28;;
38972;SDS011;25333;50.762;4.470;2022-10-28T14:48:54;7.25;;;2.38;;
38972;SDS011;25333;50.762;4.470;2022-10-28T14:51:24;4.10;;;2.58;;
38972;SDS011;25333;50.762;4.470;2022-10-28T14:53:58;9.40;;;2.83;;
38972;SDS011;25333;50.762;4.470;2022-10-28T14:56:29;7.47;;;2.95;;
38972;SDS011;25333;50.762;4.470;2022-10-28T14:59:02;7.53;;;3.33;;
38972;SDS011;25333;50.762;4.470;2022-10-28T15:02:09;7.70;;;3.33;;
38972;SDS011;25333;50.762;4.470;2022-10-28T15:04:38;6.80;;;2.53;;
38972;SDS011;25333;50.762;4.470;2022-10-28T15:07:07;8.80;;;3.40;;
38972;SDS011;25333;50.762;4.470;2022-10-28T15:09:40;6.85;;;2.58;;
38972;SDS011;25333;50.762;4.470;2022-10-28T15:12:08;6.45;;;2.90;;
38972;SDS011;25333;50.762;4.470;2022-10-28T15:14:38;6.78;;;3.22;;
38972;SDS011;25333;50.762;4.470;2022-10-28T15:17:10;6.47;;;3.03;;
38972;SDS011;25333;50.762;4.470;2022-10-28T15:19:53;6.37;;;2.67;;
38972;SDS011;25333;50.762;4.470;2022-10-28T15:24:51;8.75;;;2.90;;
38972;SDS011;25333;50.762;4.470;2022-10-28T15:27:18;11.43;;;3.53;;
38972;SDS011;25333;50.762;4.470;2022-10-28T15:29:45;5.70;;;3.00;;
38972;SDS011;25333;50.762;4.470;2022-10-28T15:32:13;6.82;;;3.22;;
38972;SDS011;25333;50.762;4.470;2022-10-28T15:34:50;7.43;;;2.97;;
38972;SDS011;25333;50.762;4.470;2022-10-28T15:37:19;6.97;;;3.20;;
38972;SDS011;25333;50.762;4.470;2022-10-28T15:40:08;6.50;;;3.08;;
38972;SDS011;25333;50.762;4.470;2022-10-28T15:45:46;4.45;;;2.40;;
38972;SDS011;25333;50.762;4.470;2022-10-28T15:48:18;5.63;;;2.30;;
38972;SDS011;25333;50.762;4.470;2022-10-28T15:53:41;11.57;;;2.97;;
38972;SDS011;25333;50.762;4.470;2022-10-28T16:01:45;9.18;;;3.15;;
38972;SDS011;25333;50.762;4.470;2022-10-28T16:04:53;10.03;;;3.33;;
38972;SDS011;25333;50.762;4.470;2022-10-28T16:07:07;11.10;;;3.20;;
38972;SDS011;25333;50.762;4.470;2022-10-28T16:09:34;5.93;;;2.15;;
38972;SDS011;25333;50.762;4.470;2022-10-28T16:12:11;8.18;;;3.30;;
38972;SDS011;25333;50.762;4.470;2022-10-28T16:15:12;5.43;;;3.05;;
38972;SDS011;25333;50.762;4.470;2022-10-28T16:17:37;7.07;;;2.97;;
38972;SDS011;25333;50.762;4.470;2022-10-28T16:22:35;8.05;;;3.75;;
38972;SDS011;25333;50.762;4.470;2022-10-28T16:25:13;6.60;;;2.50;;
38972;SDS011;25333;50.762;4.470;2022-10-28T16:27:41;8.43;;;3.60;;
38972;SDS011;25333;50.762;4.470;2022-10-28T16:30:06;7.40;;;3.17;;
38972;SDS011;25333;50.762;4.470;2022-10-28T16:32:33;7.45;;;2.78;;
38972;SDS011;25333;50.762;4.470;2022-10-28T16:35:02;6.68;;;2.65;;
38972;SDS011;25333;50.762;4.470;2022-10-28T16:37:36;7.85;;;3.20;;
38972;SDS011;25333;50.762;4.470;2022-10-28T16:40:02;6.82;;;2.53;;
38972;SDS011;25333;50.762;4.470;2022-10-28T16:42:30;7.93;;;2.40;;
38972;SDS011;25333;50.762;4.470;2022-10-28T16:44:56;7.40;;;3.37;;
38972;SDS011;25333;50.762;4.470;2022-10-28T16:47:23;6.47;;;2.50;;
38972;SDS011;25333;50.762;4.470;2022-10-28T16:49:53;8.07;;;2.88;;
38972;SDS011;25333;50.762;4.470;2022-10-28T16:52:22;5.05;;;2.80;;
38972;SDS011;25333;50.762;4.470;2022-10-28T16:54:54;3.85;;;2.17;;
38972;SDS011;25333;50.762;4.470;2022-10-28T16:57:21;6.88;;;2.60;;
38972;SDS011;25333;50.762;4.470;2022-10-28T16:59:46;3.85;;;2.03;;
38972;SDS011;25333;50.762;4.470;2022-10-28T17:02:21;6.05;;;3.03;;
38972;SDS011;25333;50.762;4.470;2022-10-28T17:04:47;6.75;;;3.50;;
38972;SDS011;25333;50.762;4.470;2022-10-28T17:07:13;5.25;;;2.95;;
38972;SDS011;25333;50.762;4.470;2022-10-28T17:09:43;7.22;;;2.97;;
38972;SDS011;25333;50.762;4.470;2022-10-28T17:12:12;6.90;;;2.63;;
38972;SDS011;25333;50.762;4.470;2022-10-28T17:14:42;8.10;;;2.72;;
38972;SDS011;25333;50.762;4.470;2022-10-28T17:17:08;10.23;;;3.40;;
38972;SDS011;25333;50.762;4.470;2022-10-28T17:19:37;11.07;;;3.47;;
38972;SDS011;25333;50.762;4.470;2022-10-28T17:22:04;8.85;;;3.75;;
38972;SDS011;25333;50.762;4.470;2022-10-28T17:24:30;5.75;;;2.70;;
38972;SDS011;25333;50.762;4.470;2022-10-28T17:26:56;6.70;;;3.42;;
38972;SDS011;25333;50.762;4.470;2022-10-28T17:29:22;4.82;;;2.40;;
38972;SDS011;25333;50.762;4.470;2022-10-28T17:31:47;6.53;;;2.90;;
38972;SDS011;25333;50.762;4.470;2022-10-28T17:34:13;7.83;;;3.20;;
38972;SDS011;25333;50.762;4.470;2022-10-28T17:36:39;11.37;;;3.87;;
38972;SDS011;25333;50.762;4.470;2022-10-28T17:39:07;11.03;;;3.67;;
38972;SDS011;25333;50.762;4.470;2022-10-28T17:41:34;8.50;;;2.80;;